In Rescue
 
Open Full Screen Window  High Contrast Mode
Wind Gusting 16 knots
08
January 20, 2021 5:51 PM EST
Weather Information
Wind Direction
  210 °
Wind Speed
  08 kt (9 mph)
Wind Gust
  16 kt (18 mph)
Altimeter
29.90 in
Visibility
10 SM
Temperature
-05° C
23° F
Dewpoint
-09° C
16° F
Humidity
74%
Sky Condition
Clear
VFR

METAR KBAX 202251Z AUTO 21008G16KT 10SM CLR M05/M09 A2990 RMK AO2 T10521092

FAA Disclaimer: The data displayed is for advisory purposes only and is not to be used for flight planning or operations.